createdAt,value
2022-08-09T00:00:00.127Z,20.20
2022-08-09T00:02:28.365Z,20.16
2022-08-09T00:05:03.699Z,20.12
2022-08-09T00:07:44.721Z,20.07
2022-08-09T00:10:17.845Z,20.03
2022-08-09T00:12:45.549Z,19.99
2022-08-09T00:15:14.820Z,19.95
2022-08-09T00:18:10.549Z,19.90
2022-08-09T00:20:27.807Z,19.86
2022-08-09T00:22:58.039Z,19.82
2022-08-09T00:25:34.832Z,19.78
2022-08-09T00:28:04.029Z,19.73
2022-08-09T00:30:30.964Z,19.69
2022-08-09T00:32:57.887Z,19.65
2022-08-09T00:35:24.785Z,19.60
2022-08-09T00:37:51.590Z,19.57
2022-08-09T00:40:19.809Z,19.53
2022-08-09T00:44:11.855Z,19.49
2022-08-09T00:45:34.898Z,19.45
2022-08-09T00:48:03.675Z,19.43
2022-08-09T00:50:30.538Z,19.41
2022-08-09T00:52:57.295Z,19.38
2022-08-09T00:56:02.957Z,19.37
2022-08-09T00:58:14.733Z,19.33
2022-08-09T01:00:53.051Z,19.31
2022-08-09T01:03:54.843Z,19.30
2022-08-09T01:06:35.230Z,19.29
2022-08-09T01:09:35.833Z,19.29
2022-08-09T01:12:25.884Z,19.29
2022-08-09T01:15:01.456Z,19.29
2022-08-09T01:17:40.428Z,19.28
2022-08-09T01:20:18.003Z,19.25
2022-08-09T01:24:01.240Z,19.23
2022-08-09T01:26:08.889Z,19.20
2022-08-09T01:28:37.559Z,19.19
2022-08-09T01:31:06.135Z,19.16
2022-08-09T01:33:36.770Z,19.14
2022-08-09T01:36:09.238Z,19.12
2022-08-09T01:38:38.505Z,19.10
2022-08-09T01:41:18.504Z,19.09
2022-08-09T01:43:55.864Z,19.09
2022-08-09T01:46:29.683Z,19.07
2022-08-09T01:49:10.438Z,19.06
2022-08-09T01:51:44.644Z,19.06
2022-08-09T01:54:43.388Z,19.03
2022-08-09T01:57:45.860Z,19.55
2022-08-09T02:00:35.063Z,21.44
2022-08-09T02:03:02.588Z,22.31
2022-08-09T02:05:37.839Z,21.73
2022-08-09T02:08:38.849Z,21.12
2022-08-09T02:11:16.761Z,20.75
2022-08-09T02:14:02.204Z,20.51
2022-08-09T02:16:35.194Z,20.32
2022-08-09T02:19:02.510Z,20.17
2022-08-09T02:21:40.546Z,20.04
2022-08-09T02:24:25.870Z,19.91
2022-08-09T02:26:58.803Z,19.79
2022-08-09T02:29:31.278Z,19.68
2022-08-09T02:32:01.143Z,19.59
2022-08-09T02:34:40.977Z,19.50
2022-08-09T02:37:21.243Z,19.41
2022-08-09T02:40:01.570Z,19.34
2022-08-09T02:42:40.430Z,19.26
2022-08-09T02:45:13.945Z,19.20
2022-08-09T02:47:58.134Z,19.15
2022-08-09T02:50:35.734Z,19.53
2022-08-09T02:53:07.969Z,21.04
2022-08-09T02:55:46.773Z,22.02
2022-08-09T02:58:35.700Z,21.50
2022-08-09T03:01:10.643Z,20.97
2022-08-09T03:04:18.088Z,20.64
2022-08-09T03:06:27.517Z,20.39
2022-08-09T03:08:54.903Z,20.23
2022-08-09T03:12:04.067Z,20.09
2022-08-09T03:14:10.273Z,19.95
2022-08-09T03:16:41.799Z,19.85
2022-08-09T03:19:16.568Z,19.75
2022-08-09T03:21:59.515Z,19.64
2022-08-09T03:24:31.458Z,19.56
2022-08-09T03:27:09.621Z,19.48
2022-08-09T03:29:58.118Z,19.40
2022-08-09T03:32:25.524Z,19.33
2022-08-09T03:34:54.202Z,19.26
2022-08-09T03:37:56.157Z,19.54
2022-08-09T03:40:13.272Z,21.12
2022-08-09T03:42:39.827Z,22.05
2022-08-09T03:45:10.847Z,21.63
2022-08-09T03:47:40.259Z,21.10
2022-08-09T03:50:09.659Z,20.75
2022-08-09T03:52:42.205Z,20.51
2022-08-09T03:55:11.132Z,20.33
2022-08-09T03:57:53.483Z,20.19
2022-08-09T04:00:24.387Z,20.06
2022-08-09T04:02:53.612Z,19.95
2022-08-09T04:05:27.558Z,19.85
2022-08-09T04:07:57.294Z,19.76
2022-08-09T04:10:29.117Z,19.68
2022-08-09T04:13:01.246Z,19.97
2022-08-09T04:16:18.894Z,21.43
2022-08-09T04:18:19.336Z,22.42
2022-08-09T04:20:47.914Z,21.93
2022-08-09T04:23:17.153Z,21.42
2022-08-09T04:25:49.693Z,21.07
2022-08-09T04:28:33.629Z,20.83
2022-08-09T04:31:07.717Z,20.65
2022-08-09T04:33:53.113Z,20.51
2022-08-09T04:36:26.777Z,20.38
2022-08-09T04:38:55.131Z,20.29
2022-08-09T04:41:23.319Z,20.20
2022-08-09T04:44:05.906Z,20.12
2022-08-09T04:46:56.833Z,20.05
2022-08-09T04:49:40.651Z,19.98
2022-08-09T04:52:10.165Z,19.91
2022-08-09T04:54:38.478Z,19.85
2022-08-09T04:57:05.543Z,19.81
2022-08-09T04:59:37.042Z,20.11
2022-08-09T05:02:04.811Z,21.53
2022-08-09T05:04:33.124Z,22.57
2022-08-09T05:06:59.726Z,22.21
2022-08-09T05:09:28.276Z,21.71
2022-08-09T05:12:09.777Z,21.34
2022-08-09T05:14:39.221Z,21.12
2022-08-09T05:17:15.213Z,20.97
2022-08-09T05:19:56.679Z,20.84
2022-08-09T05:22:43.648Z,20.75
2022-08-09T05:25:11.071Z,20.67
2022-08-09T05:27:45.586Z,20.60
2022-08-09T05:30:19.488Z,20.53
2022-08-09T05:32:51.143Z,20.49
2022-08-09T05:35:22.061Z,20.45
2022-08-09T05:37:50.425Z,20.43
2022-08-09T05:40:17.255Z,20.41
2022-08-09T05:42:45.061Z,20.39
2022-08-09T05:45:14.477Z,20.38
2022-08-09T05:47:51.527Z,20.38
2022-08-09T05:50:32.158Z,20.38
2022-08-09T05:53:11.739Z,20.39
2022-08-09T05:55:48.451Z,20.41
2022-08-09T05:58:19.559Z,20.42
2022-08-09T06:00:46.015Z,20.44
2022-08-09T06:03:12.976Z,20.47
2022-08-09T06:05:54.770Z,20.50
2022-08-09T06:08:25.189Z,20.53
2022-08-09T06:10:54.677Z,20.56
2022-08-09T06:13:22.051Z,20.59
2022-08-09T06:15:51.814Z,20.61
2022-08-09T06:18:24.207Z,20.64
2022-08-09T06:20:57.249Z,20.68
2022-08-09T06:23:59.021Z,20.71
2022-08-09T06:26:21.170Z,20.75
2022-08-09T06:28:59.661Z,20.80
2022-08-09T06:31:31.477Z,20.84
2022-08-09T06:34:06.271Z,20.87
2022-08-09T06:36:33.937Z,20.89
2022-08-09T06:39:02.415Z,20.90
2022-08-09T06:42:07.969Z,20.93
2022-08-09T06:44:21.885Z,20.97
2022-08-09T06:46:50.405Z,21.01
2022-08-09T06:49:44.602Z,21.07
2022-08-09T06:52:10.403Z,21.12
2022-08-09T06:54:38.816Z,21.16
2022-08-09T06:57:08.290Z,21.20
2022-08-09T07:00:52.912Z,21.25
2022-08-09T07:02:21.477Z,21.30
2022-08-09T07:04:47.978Z,21.35
2022-08-09T07:07:28.506Z,21.41
2022-08-09T07:10:14.046Z,21.47
2022-08-09T07:12:57.189Z,21.55
2022-08-09T07:16:36.112Z,21.61
2022-08-09T07:18:10.487Z,21.68
2022-08-09T07:20:40.760Z,21.74
2022-08-09T07:23:18.557Z,21.81
2022-08-09T07:25:52.531Z,21.85
2022-08-09T07:28:34.951Z,21.90
2022-08-09T07:31:06.150Z,21.95
2022-08-09T07:33:52.154Z,21.99
2022-08-09T07:36:19.536Z,22.04
2022-08-09T07:38:52.596Z,22.09
2022-08-09T07:41:25.809Z,22.12
2022-08-09T07:43:56.217Z,22.15
2022-08-09T07:46:27.867Z,22.18
2022-08-09T07:49:00.343Z,22.21
2022-08-09T07:52:06.048Z,22.25
2022-08-09T07:54:15.445Z,22.31
2022-08-09T07:56:49.707Z,22.33
2022-08-09T07:59:34.161Z,22.36
2022-08-09T08:02:07.082Z,22.40
2022-08-09T08:04:36.017Z,22.44
2022-08-09T08:07:14.744Z,22.48
2022-08-09T08:10:04.550Z,22.53
2022-08-09T08:12:37.110Z,22.57
2022-08-09T08:15:13.880Z,22.63
2022-08-09T08:17:54.610Z,22.69
2022-08-09T08:20:29.709Z,22.73
2022-08-09T08:23:01.708Z,22.76
2022-08-09T08:25:43.940Z,22.80
2022-08-09T08:28:11.559Z,22.83
2022-08-09T08:30:42.291Z,22.86
2022-08-09T08:33:11.967Z,22.88
2022-08-09T08:35:53.187Z,22.90
2022-08-09T08:38:25.583Z,22.93
2022-08-09T08:40:56.839Z,22.95
2022-08-09T08:43:25.697Z,22.98
2022-08-09T08:46:10.118Z,23.00
2022-08-09T08:48:51.223Z,23.03
2022-08-09T08:51:18.736Z,23.06
2022-08-09T08:54:03.320Z,23.11
2022-08-09T08:56:39.687Z,23.18
2022-08-09T08:59:18.994Z,23.24
2022-08-09T09:01:53.256Z,23.34
2022-08-09T09:04:29.330Z,23.43
2022-08-09T09:06:57.612Z,23.53
2022-08-09T09:09:41.229Z,23.62
2022-08-09T09:12:19.629Z,23.76
2022-08-09T09:14:49.990Z,23.86
2022-08-09T09:17:19.539Z,23.98
2022-08-09T09:19:47.862Z,24.09
2022-08-09T09:22:26.556Z,24.18
2022-08-09T09:25:27.726Z,24.27
2022-08-09T09:28:06.556Z,24.36
2022-08-09T09:30:47.433Z,24.48
2022-08-09T09:33:17.362Z,24.60
2022-08-09T09:36:01.039Z,24.76
2022-08-09T09:39:01.902Z,24.94
2022-08-09T09:41:33.522Z,25.20
2022-08-09T09:44:31.635Z,25.48
2022-08-09T09:47:09.708Z,25.71
2022-08-09T09:49:56.260Z,25.86
2022-08-09T09:52:37.028Z,25.97
2022-08-09T09:55:16.435Z,26.03
2022-08-09T09:58:16.469Z,26.09
2022-08-09T10:00:54.545Z,26.13
2022-08-09T10:03:56.168Z,26.16
2022-08-09T10:06:24.767Z,26.20
2022-08-09T10:08:59.262Z,26.23
2022-08-09T10:12:00.702Z,26.26
2022-08-09T10:14:32.968Z,26.29
2022-08-09T10:17:40.622Z,26.34
2022-08-09T10:19:59.120Z,26.46
2022-08-09T10:22:38.195Z,26.62
2022-08-09T10:25:11.948Z,26.85
2022-08-09T10:27:45.418Z,27.11
2022-08-09T10:33:09.878Z,27.78
2022-08-09T10:35:56.447Z,28.11
2022-08-09T10:38:54.701Z,28.41
2022-08-09T10:41:16.703Z,28.68
2022-08-09T10:44:01.213Z,28.90
2022-08-09T10:48:13.434Z,29.15
2022-08-09T10:50:17.491Z,29.56
2022-08-09T10:53:39.494Z,29.93
2022-08-09T10:56:39.952Z,30.34
2022-08-09T10:59:55.376Z,30.58
2022-08-09T11:03:15.878Z,30.79
2022-08-09T11:05:29.748Z,30.99
2022-08-09T11:08:46.988Z,31.17
2022-08-09T11:11:16.802Z,31.38
2022-08-09T11:13:50.661Z,31.56
2022-08-09T11:16:37.129Z,31.76
2022-08-09T11:19:07.823Z,31.95
2022-08-09T11:21:55.117Z,32.12
2022-08-09T11:25:12.480Z,32.18
2022-08-09T11:28:02.902Z,32.15
2022-08-09T11:30:36.222Z,32.08
2022-08-09T11:33:18.520Z,31.95
2022-08-09T11:35:58.566Z,31.80
2022-08-09T11:38:32.512Z,31.63
2022-08-09T11:41:13.304Z,31.43
2022-08-09T11:43:48.133Z,31.28
2022-08-09T11:46:26.707Z,31.11
2022-08-09T11:49:00.906Z,30.93
2022-08-09T11:53:00.728Z,30.68
2022-08-09T11:55:52.872Z,30.39
2022-08-09T11:58:15.689Z,30.18
2022-08-09T12:00:59.478Z,30.10
2022-08-09T12:03:55.046Z,29.99
2022-08-09T12:06:26.930Z,29.88
2022-08-09T12:09:01.240Z,29.76
2022-08-09T12:11:28.497Z,29.64
2022-08-09T12:14:09.025Z,29.51
2022-08-09T12:16:41.532Z,29.38
2022-08-09T12:19:12.508Z,29.27
2022-08-09T12:21:51.388Z,29.16
2022-08-09T12:24:24.113Z,29.05
2022-08-09T12:29:11.660Z,28.94
2022-08-09T12:30:00.104Z,28.81
2022-08-09T12:32:40.654Z,28.64
2022-08-09T12:35:10.861Z,28.49
2022-08-09T12:37:49.681Z,28.31
2022-08-09T12:40:21.189Z,28.17
2022-08-09T12:42:50.223Z,28.01
2022-08-09T12:45:32.329Z,27.88
2022-08-09T12:48:04.027Z,27.77
2022-08-09T12:50:31.313Z,27.68
2022-08-09T12:53:17.799Z,27.62
2022-08-09T12:56:13.021Z,27.56
2022-08-09T12:58:31.930Z,27.52
2022-08-09T13:01:01.193Z,27.48
2022-08-09T13:03:54.086Z,27.48
2022-08-09T13:06:35.781Z,27.49
2022-08-09T13:09:30.490Z,27.52
2022-08-09T13:12:03.003Z,27.59
2022-08-09T13:14:43.838Z,27.64
2022-08-09T13:17:21.805Z,27.66
2022-08-09T13:20:13.313Z,27.65
2022-08-09T13:23:05.802Z,27.64
2022-08-09T13:25:42.945Z,27.63
2022-08-09T13:28:33.881Z,27.60
2022-08-09T13:32:13.600Z,27.58
2022-08-09T13:33:56.554Z,27.61
2022-08-09T13:36:37.644Z,27.63
2022-08-09T13:41:17.317Z,27.67
2022-08-09T13:42:01.374Z,27.72
2022-08-09T13:44:29.256Z,27.77
2022-08-09T13:47:28.901Z,27.84
2022-08-09T13:49:55.841Z,27.92
2022-08-09T13:52:24.541Z,28.02
2022-08-09T13:54:59.750Z,28.12
2022-08-09T13:57:35.478Z,28.21
2022-08-09T14:00:12.560Z,28.29
2022-08-09T14:02:42.469Z,28.36
2022-08-09T14:05:57.176Z,28.42
2022-08-09T14:08:15.848Z,28.47
2022-08-09T14:10:51.894Z,28.49
2022-08-09T14:14:15.029Z,28.47
2022-08-09T14:16:14.903Z,28.44
2022-08-09T14:18:49.318Z,28.41
2022-08-09T14:21:22.945Z,28.41
2022-08-09T14:23:54.787Z,28.38
2022-08-09T14:26:31.963Z,28.34
2022-08-09T14:29:08.130Z,28.31
2022-08-09T14:31:53.657Z,28.30
2022-08-09T14:34:31.910Z,28.29
2022-08-09T14:37:06.291Z,28.30
2022-08-09T14:39:45.979Z,28.29
2022-08-09T14:42:31.855Z,28.24
2022-08-09T14:45:14.913Z,28.17
2022-08-09T14:47:57.573Z,28.08
2022-08-09T14:50:33.065Z,28.01
2022-08-09T14:53:03.354Z,27.93
2022-08-09T14:55:33.098Z,27.86
2022-08-09T14:58:04.785Z,27.79
2022-08-09T15:00:33.819Z,27.70
2022-08-09T15:03:06.084Z,27.63
2022-08-09T15:05:34.361Z,27.54
2022-08-09T15:08:05.827Z,27.47
2022-08-09T15:10:35.081Z,27.39
2022-08-09T15:13:03.488Z,27.33
2022-08-09T15:15:34.394Z,27.26
2022-08-09T15:18:07.147Z,27.21
2022-08-09T15:21:55.921Z,27.15
2022-08-09T15:24:01.448Z,27.08
2022-08-09T15:26:18.949Z,27.02
2022-08-09T15:28:55.434Z,26.97
2022-08-09T15:31:40.408Z,26.91
2022-08-09T15:34:32.743Z,26.87
2022-08-09T15:37:24.448Z,26.83
2022-08-09T15:40:11.666Z,26.80
2022-08-09T15:42:40.238Z,26.81
2022-08-09T15:45:11.944Z,26.83
2022-08-09T15:47:51.487Z,26.87
2022-08-09T15:50:19.643Z,26.89
2022-08-09T15:52:54.602Z,26.92
2022-08-09T15:55:53.923Z,26.95
2022-08-09T15:58:26.483Z,26.97
2022-08-09T16:00:54.163Z,27.01
2022-08-09T16:03:29.382Z,27.03
2022-08-09T16:06:06.572Z,27.07
2022-08-09T16:08:33.499Z,27.10
2022-08-09T16:11:02.273Z,27.12
2022-08-09T16:14:06.153Z,27.13
2022-08-09T16:16:19.674Z,27.15
2022-08-09T16:18:47.388Z,27.15
2022-08-09T16:21:17.651Z,27.15
2022-08-09T16:23:55.571Z,27.13
2022-08-09T16:26:33.725Z,27.10
2022-08-09T16:29:10.964Z,27.05
2022-08-09T16:32:19.454Z,27.00
2022-08-09T16:34:29.421Z,26.94
2022-08-09T16:37:16.097Z,26.89
2022-08-09T16:39:54.632Z,26.84
2022-08-09T16:42:31.947Z,26.78
2022-08-09T16:44:58.522Z,26.74
2022-08-09T16:48:39.963Z,26.69
2022-08-09T16:50:33.150Z,26.65
2022-08-09T16:53:01.415Z,26.59
2022-08-09T16:55:44.144Z,26.51
2022-08-09T16:58:17.263Z,26.44
2022-08-09T17:00:46.472Z,26.36
2022-08-09T17:03:21.509Z,26.29
2022-08-09T17:06:07.475Z,26.21
2022-08-09T17:08:46.751Z,26.11
2022-08-09T17:11:40.150Z,26.01
2022-08-09T17:14:26.577Z,25.93
2022-08-09T17:17:02.398Z,25.84
2022-08-09T17:20:04.986Z,25.74
2022-08-09T17:22:24.219Z,25.65
2022-08-09T17:24:55.759Z,25.55
2022-08-09T17:27:30.455Z,25.46
2022-08-09T17:30:04.656Z,25.38
2022-08-09T17:32:37.811Z,25.31
2022-08-09T17:35:12.170Z,25.22
2022-08-09T17:38:02.400Z,25.15
2022-08-09T17:40:30.278Z,25.06
2022-08-09T17:43:10.887Z,24.97
2022-08-09T17:46:02.663Z,24.87
2022-08-09T17:48:32.349Z,24.80
2022-08-09T17:51:08.687Z,24.73
2022-08-09T17:53:48.098Z,24.66
2022-08-09T17:56:29.315Z,24.58
2022-08-09T17:59:09.232Z,24.52
2022-08-09T18:02:07.668Z,24.45
2022-08-09T18:04:29.889Z,24.40
2022-08-09T18:06:57.100Z,24.35
2022-08-09T18:09:25.253Z,24.30
2022-08-09T18:12:15.014Z,24.25
2022-08-09T18:14:54.236Z,24.19
2022-08-09T18:18:03.555Z,24.15
2022-08-09T18:20:54.999Z,24.11
2022-08-09T18:24:08.755Z,24.06
2022-08-09T18:26:00.124Z,24.02
2022-08-09T18:30:41.162Z,23.97
2022-08-09T18:31:25.003Z,23.91
2022-08-09T18:34:02.459Z,23.87
2022-08-09T18:36:32.544Z,23.81
2022-08-09T18:39:05.476Z,23.76
2022-08-09T18:41:35.701Z,23.72
2022-08-09T18:44:12.556Z,23.66
2022-08-09T18:46:48.426Z,23.61
2022-08-09T18:49:19.653Z,23.55
2022-08-09T18:51:54.889Z,23.49
2022-08-09T18:54:29.713Z,23.43
2022-08-09T18:57:05.881Z,23.38
2022-08-09T18:59:37.466Z,23.31
2022-08-09T19:02:17.319Z,23.22
2022-08-09T19:04:47.374Z,23.14
2022-08-09T19:07:16.344Z,23.04
2022-08-09T19:10:15.599Z,22.95
2022-08-09T19:12:37.051Z,22.85
2022-08-09T19:15:06.402Z,22.76
2022-08-09T19:17:54.473Z,22.67
2022-08-09T19:20:23.180Z,22.58
2022-08-09T19:22:54.474Z,22.50
2022-08-09T19:25:42.545Z,22.42
2022-08-09T19:28:09.218Z,22.34
2022-08-09T19:30:44.234Z,22.27
2022-08-09T19:33:19.494Z,22.19
2022-08-09T19:35:57.974Z,22.12
2022-08-09T19:38:26.757Z,22.05
2022-08-09T19:40:54.019Z,21.98
2022-08-09T19:43:58.031Z,21.92
2022-08-09T19:46:08.031Z,21.86
2022-08-09T19:49:00.694Z,21.81
2022-08-09T19:51:21.393Z,21.74
2022-08-09T19:53:48.229Z,21.68
2022-08-09T19:56:15.380Z,21.63
2022-08-09T19:58:42.403Z,21.57
2022-08-09T20:01:28.289Z,21.51
2022-08-09T20:04:24.116Z,21.45
2022-08-09T20:06:56.411Z,21.38
2022-08-09T20:09:44.926Z,21.34
2022-08-09T20:12:30.034Z,21.27
2022-08-09T20:14:58.303Z,21.23
2022-08-09T20:17:26.129Z,21.19
2022-08-09T20:19:58.095Z,21.14
2022-08-09T20:22:32.211Z,21.11
2022-08-09T20:25:04.824Z,21.08
2022-08-09T20:27:32.042Z,21.05
2022-08-09T20:30:02.667Z,21.02
2022-08-09T20:32:33.718Z,21.00
2022-08-09T20:35:01.427Z,20.97
2022-08-09T20:37:37.350Z,20.95
2022-08-09T20:40:28.240Z,20.92
2022-08-09T20:43:17.891Z,20.89
2022-08-09T20:46:00.403Z,20.87
2022-08-09T20:48:37.237Z,20.84
2022-08-09T20:51:05.597Z,20.81
2022-08-09T20:53:37.261Z,20.79
2022-08-09T20:56:08.735Z,20.77
2022-08-09T20:58:35.921Z,20.74
2022-08-09T21:01:32.777Z,20.71
2022-08-09T21:05:49.565Z,20.69
2022-08-09T21:06:41.561Z,20.66
2022-08-09T21:09:13.441Z,20.64
2022-08-09T21:14:30.973Z,20.57
2022-08-09T21:16:59.338Z,20.55
2022-08-09T21:20:05.176Z,20.52
2022-08-09T21:22:35.969Z,20.49
2022-08-09T21:25:18.577Z,20.45
2022-08-09T21:27:52.109Z,20.42
2022-08-09T21:30:22.401Z,20.38
2022-08-09T21:32:50.414Z,20.34
2022-08-09T21:35:17.134Z,20.30
2022-08-09T21:37:58.682Z,20.25
2022-08-09T21:40:30.119Z,20.22
2022-08-09T21:43:01.167Z,20.17
2022-08-09T21:45:28.050Z,20.14
2022-08-09T21:47:55.719Z,20.10
2022-08-09T21:50:35.861Z,20.06
2022-08-09T21:53:23.911Z,20.02
2022-08-09T21:55:53.580Z,20.46
2022-08-09T21:58:20.447Z,21.93
2022-08-09T22:00:48.722Z,22.89
2022-08-09T22:03:19.556Z,22.45
2022-08-09T22:05:54.184Z,21.89
2022-08-09T22:08:24.548Z,21.52
2022-08-09T22:11:49.532Z,21.26
2022-08-09T22:13:39.275Z,21.03
2022-08-09T22:16:11.156Z,20.87
2022-08-09T22:18:52.794Z,20.73
2022-08-09T22:21:24.192Z,20.57
2022-08-09T22:23:59.871Z,20.44
2022-08-09T22:26:34.743Z,20.31
2022-08-09T22:29:08.745Z,20.18
2022-08-09T22:31:44.115Z,20.07
2022-08-09T22:34:25.901Z,19.94
2022-08-09T22:36:55.569Z,19.83
2022-08-09T22:39:57.462Z,20.09
2022-08-09T22:42:22.063Z,21.63
2022-08-09T22:45:00.558Z,22.54
2022-08-09T22:48:10.397Z,21.93
2022-08-09T22:50:26.990Z,21.32
2022-08-09T22:52:58.026Z,20.95
2022-08-09T22:55:39.238Z,20.67
2022-08-09T22:58:20.190Z,20.43
2022-08-09T23:01:03.639Z,20.24
2022-08-09T23:04:03.974Z,20.09
2022-08-09T23:06:29.865Z,19.92
2022-08-09T23:09:06.022Z,20.19
2022-08-09T23:11:32.736Z,21.52
2022-08-09T23:13:59.220Z,22.68
2022-08-09T23:16:25.689Z,23.20
2022-08-09T23:18:52.143Z,22.54
2022-08-09T23:21:25.288Z,21.86
2022-08-09T23:24:01.449Z,21.39
2022-08-09T23:26:32.221Z,21.02
2022-08-09T23:28:58.762Z,20.76
2022-08-09T23:31:25.334Z,20.54
2022-08-09T23:33:51.723Z,20.34
2022-08-09T23:36:18.126Z,20.15
2022-08-09T23:38:48.321Z,19.97
2022-08-09T23:41:28.380Z,19.79
2022-08-09T23:44:00.788Z,20.02
2022-08-09T23:46:28.688Z,21.34
2022-08-09T23:48:56.170Z,22.54
2022-08-09T23:51:22.664Z,23.05
2022-08-09T23:53:52.352Z,22.36
2022-08-09T23:56:39.631Z,21.66
2022-08-09T23:59:06.730Z,21.12
